Mister T — WDC2491 — position and weather

sailwx.info

Track history (hours):
 
Tides and Currents Weather Stations Pressure Air Temp Water Temp Dewpoint Dewpoint Depression Visibility Wind Speed Wind Dir Waves Ship Positions

Mister T

Owner: Buchanan Marine LP, New Haven, CT. More information available from US FCC via Universal Licensing System and Coast Guard Vessel Documentation Center.

Last reported at 2018-Jun-22 17:01 UTC. Time now 2018-Jun-22 17:09 UTC.
Position N 40°40' W 074°01'.

Length 25 m; draft 3.6 m.

Type: Towing. MMSI: 366993880.

Date/timePositionNaut miles runAvg speedWind from/ knotsBaromVisibWave heightAir tempDewpointWater temp
2018-Jun-22 17:01N 40°40' W 074°01'0 0.0
2018-Jun-22 16:30N 40°40' W 074°01'0 0.0
2018-Jun-22 16:01N 40°40' W 074°01'0 0.0
2018-Jun-22 15:30N 40°40' W 074°01'0 0.0
2018-Jun-22 15:00N 40°40' W 074°01'0 0.0
2018-Jun-22 14:30N 40°40' W 074°01'0 0.0
2018-Jun-22 14:00N 40°40' W 074°01'0 0.0
2018-Jun-22 13:30N 40°40' W 074°01'0 0.0
2018-Jun-22 13:00N 40°40' W 074°01'0 0.0
2018-Jun-22 12:30N 40°40' W 074°01'0 0.0
2018-Jun-22 12:00N 40°40' W 074°01'0 0.0
2018-Jun-22 11:30N 40°40' W 074°01'0 0.0
2018-Jun-22 11:00N 40°40' W 074°01'0 0.0
2018-Jun-22 10:30N 40°40' W 074°01'0 0.0
2018-Jun-22 10:00N 40°40' W 074°01'0 0.0
2018-Jun-22 09:30N 40°40' W 074°01'0 0.0
2018-Jun-22 09:00N 40°40' W 074°01'0 0.0
2018-Jun-22 08:30N 40°40' W 074°01'0 0.0
2018-Jun-22 08:00N 40°40' W 074°01'0 0.0
2018-Jun-22 07:30N 40°40' W 074°01'0 0.0
2018-Jun-22 07:00N 40°40' W 074°01'0 0.0
2018-Jun-22 06:30N 40°40' W 074°01'0 0.0
2018-Jun-22 06:00N 40°40' W 074°01'0 0.0
2018-Jun-22 05:30N 40°40' W 074°01'0 0.0
2018-Jun-22 05:00N 40°40' W 074°01'0 0.0
2018-Jun-22 04:30N 40°40' W 074°01'0 0.0
2018-Jun-22 04:00N 40°40' W 074°01'0 0.0
2018-Jun-22 03:30N 40°40' W 074°01'0 0.0
2018-Jun-22 03:00N 40°40' W 074°01'0 0.0
2018-Jun-22 02:30N 40°40' W 074°01'0 0.0
2018-Jun-22 02:00N 40°40' W 074°01'0 0.0
2018-Jun-22 01:30N 40°40' W 074°01'0 0.0
2018-Jun-22 01:00N 40°40' W 074°01'0 0.0
2018-Jun-22 00:30N 40°40' W 074°01'0 0.0
2018-Jun-22 00:00N 40°40' W 074°01'0 0.0
2018-Jun-21 23:30N 40°40' W 074°01'0 0.0
2018-Jun-21 23:00N 40°40' W 074°01'0 0.0
2018-Jun-21 22:30N 40°40' W 074°01'0 0.0
2018-Jun-21 22:00N 40°40' W 074°01'0 0.0
2018-Jun-21 21:30N 40°40' W 074°01'0 0.0
2018-Jun-21 21:00N 40°40' W 074°01'0 0.0
2018-Jun-21 20:30N 40°40' W 074°01'0 0.0
2018-Jun-21 20:00N 40°40' W 074°01'0 0.0
2018-Jun-21 19:30N 40°40' W 074°01'0 0.0
2018-Jun-21 19:00N 40°40' W 074°01'0 0.0
2018-Jun-21 18:30N 40°40' W 074°01'0 0.0
2018-Jun-21 18:00N 40°40' W 074°01'1 1.1
2018-Jun-21 17:31N 40°40' W 074°01'2 3.1
2018-Jun-21 16:59N 40°40' W 074°03'0 0.3
2018-Jun-21 16:30N 40°40' W 074°03'1 1.2
2018-Jun-21 16:01N 40°40' W 074°04'3 6.9
2018-Jun-21 15:31N 40°39' W 074°08'3 1.2
2018-Jun-21 13:20N 40°38' W 074°12'0 0.0
2018-Jun-21 12:56N 40°38' W 074°12'0 0.0
2018-Jun-21 12:21N 40°38' W 074°12'2 6.5
2018-Jun-21 12:00N 40°39' W 074°09'4 7.8
2018-Jun-21 11:31N 40°40' W 074°04'2 4.5
2018-Jun-21 11:00N 40°40' W 074°01'0 0.0
2018-Jun-21 10:30N 40°40' W 074°01'0 0.0
2018-Jun-21 10:00N 40°40' W 074°01'0 0.0
2018-Jun-21 09:30N 40°40' W 074°01'0 0.0
2018-Jun-21 08:48N 40°40' W 074°01'0 0.0
2018-Jun-21 08:30N 40°40' W 074°01'0 0.0
2018-Jun-21 07:59N 40°40' W 074°01'0 0.0
2018-Jun-21 07:30N 40°40' W 074°01'0 0.0
2018-Jun-21 07:00N 40°40' W 074°01'0 0.0
2018-Jun-21 06:29N 40°40' W 074°01'0 0.0
2018-Jun-21 06:00N 40°40' W 074°01'0 0.0
2018-Jun-21 05:30N 40°40' W 074°01'0 0.0
2018-Jun-21 04:59N 40°40' W 074°01'0 0.0
2018-Jun-21 04:30N 40°40' W 074°01'0 0.0
2018-Jun-21 04:00N 40°40' W 074°01'0 0.0
2018-Jun-21 03:29N 40°40' W 074°01'0 0.0
2018-Jun-21 03:00N 40°40' W 074°01'0 0.0
2018-Jun-21 02:30N 40°40' W 074°01'0 0.0
2018-Jun-21 02:00N 40°40' W 074°01'0 0.0
2018-Jun-21 01:30N 40°40' W 074°01'0 0.0
2018-Jun-21 00:59N 40°40' W 074°01'0 0.0
2018-Jun-21 00:30N 40°40' W 074°01'0 0.0
2018-Jun-20 23:59N 40°40' W 074°01'0 0.0
2018-Jun-20 23:29N 40°40' W 074°01'0 0.0
2018-Jun-20 22:59N 40°40' W 074°01'0 0.0
2018-Jun-20 22:30N 40°40' W 074°01'2 3.4
2018-Jun-20 22:00N 40°40' W 074°03'0 0.7
2018-Jun-20 21:31N 40°40' W 074°03'2 3.7
2018-Jun-20 21:00N 40°41' W 074°01'2 4.3
2018-Jun-20 20:30N 40°40' W 074°03'0 0.0
2018-Jun-20 20:01N 40°40' W 074°03'2 4.7
2018-Jun-20 19:31N 40°40' W 074°00'1 1.5
2018-Jun-20 19:00N 40°40' W 074°01'2 3.6
2018-Jun-20 18:30N 40°40' W 074°03'1 3.0
2018-Jun-20 18:00N 40°41' W 074°02'1 2.2
2018-Jun-20 17:30N 40°40' W 074°00'2 4.8
2018-Jun-20 17:00N 40°40' W 074°03'2 4.9
2018-Jun-20 16:30N 40°41' W 074°01'1 2.5
2018-Jun-20 16:00N 40°40' W 074°02'1 2.5
2018-Jun-20 15:30N 40°40' W 074°03'0 0.1
2018-Jun-20 15:00N 40°40' W 074°03'0 0.1
2018-Jun-20 14:30N 40°40' W 074°03'0 0.1
2018-Jun-20 13:59N 40°40' W 074°03'1 3.0
2018-Jun-20 13:31N 40°41' W 074°02'3 5.8
2018-Jun-20 13:00N 40°43' W 073°59'3 6.6
2018-Jun-20 12:30N 40°46' W 073°57'  
2018-Jun-17 12:16N 40°45' W 073°58'1 4.8
2018-Jun-17 12:01N 40°44' W 073°58'2 4.1
2018-Jun-17 11:29N 40°42' W 074°00'2 3.7
2018-Jun-17 11:01N 40°41' W 074°01'2 3.0
2018-Jun-17 10:31N 40°40' W 074°03'2 3.5
2018-Jun-17 10:00N 40°40' W 074°01'0 0.1
2018-Jun-17 09:28N 40°40' W 074°01'0 0.0
2018-Jun-17 08:58N 40°40' W 074°01'0 0.0
2018-Jun-17 08:28N 40°40' W 074°01'0 0.0
2018-Jun-17 07:58N 40°40' W 074°01'0 0.0
2018-Jun-17 07:28N 40°40' W 074°01'0 0.0
2018-Jun-17 06:58N 40°40' W 074°01'0 0.0
2018-Jun-17 06:28N 40°40' W 074°01'0 0.0
2018-Jun-17 05:58N 40°40' W 074°01'0 0.0
2018-Jun-17 05:28N 40°40' W 074°01'0 0.0
2018-Jun-17 04:58N 40°40' W 074°01'0 0.0
2018-Jun-17 04:28N 40°40' W 074°01'0 0.0
2018-Jun-17 03:58N 40°40' W 074°01'0 0.0
2018-Jun-17 03:28N 40°40' W 074°01'0 0.0
2018-Jun-17 02:58N 40°40' W 074°01'0 0.0
2018-Jun-17 02:28N 40°40' W 074°01'0 0.0
2018-Jun-17 01:58N 40°40' W 074°01'0 0.0
2018-Jun-17 01:28N 40°40' W 074°01'0 0.0
2018-Jun-17 00:58N 40°40' W 074°01'0 0.0
2018-Jun-17 00:28N 40°40' W 074°01'0 0.0
2018-Jun-16 23:58N 40°40' W 074°01'0 0.0
2018-Jun-16 23:28N 40°40' W 074°01'0 0.0
2018-Jun-16 22:58N 40°40' W 074°01'0 0.0
2018-Jun-16 22:25N 40°40' W 074°01'0 0.0
2018-Jun-16 21:58N 40°40' W 074°01'0 0.1
2018-Jun-16 21:28N 40°40' W 074°01'0 0.1
2018-Jun-16 20:58N 40°40' W 074°01'2 3.9
2018-Jun-16 20:30N 40°40' W 074°03'3 5.0
2018-Jun-16 20:00N 40°41' W 074°01'4 8.1
2018-Jun-16 19:30N 40°45' W 073°58'3 0.4
2018-Jun-16 12:39N 40°47' W 073°55'2 5.9
2018-Jun-16 12:21N 40°46' W 073°57'2 6.0
2018-Jun-16 12:00N 40°44' W 073°58'3 5.3
2018-Jun-16 11:31N 40°42' W 074°00'2 4.1
2018-Jun-16 11:01N 40°40' W 074°02'1 1.9
2018-Jun-16 10:28N 40°40' W 074°03'2 3.9
2018-Jun-16 09:59N 40°40' W 074°01'0 0.0
2018-Jun-16 09:29N 40°40' W 074°01'0 0.0
2018-Jun-16 08:59N 40°40' W 074°01'0 0.0
2018-Jun-16 08:29N 40°40' W 074°01'0 0.0
2018-Jun-16 07:59N 40°40' W 074°01'0 0.0
2018-Jun-16 07:26N 40°40' W 074°01'0 0.0
2018-Jun-16 06:59N 40°40' W 074°01'0 0.0
2018-Jun-16 06:29N 40°40' W 074°01'0 0.0
2018-Jun-16 05:59N 40°40' W 074°01'0 0.0
2018-Jun-16 05:29N 40°40' W 074°01'0 0.0
2018-Jun-16 04:59N 40°40' W 074°01'0 0.0
2018-Jun-16 04:29N 40°40' W 074°01'0 0.0
2018-Jun-16 03:59N 40°40' W 074°01'0 0.0
2018-Jun-16 03:29N 40°40' W 074°01'0 0.0
2018-Jun-16 02:59N 40°40' W 074°01'0 0.0
2018-Jun-16 02:29N 40°40' W 074°01'0 0.0
2018-Jun-16 01:59N 40°40' W 074°01'0 0.0
2018-Jun-16 01:29N 40°40' W 074°01'0 0.0
2018-Jun-16 00:59N 40°40' W 074°01'0 0.0
2018-Jun-16 00:29N 40°40' W 074°01'0 0.0
2018-Jun-15 23:59N 40°40' W 074°01'0 0.0
2018-Jun-15 23:29N 40°40' W 074°01'0 0.0
2018-Jun-15 22:59N 40°40' W 074°01'0 0.0
2018-Jun-15 22:29N 40°40' W 074°01'0 0.0
2018-Jun-15 21:59N 40°40' W 074°01'0 0.0
2018-Jun-15 21:29N 40°40' W 074°01'1 2.1
2018-Jun-15 21:00N 40°40' W 074°02'1 1.6
2018-Jun-15 20:30N 40°41' W 074°02'0 0.6
2018-Jun-15 20:00N 40°40' W 074°02'1 2.9
2018-Jun-15 19:30N 40°40' W 074°03'4 7.4
2018-Jun-15 19:00N 40°42' W 073°60'  
Track history (hours):
 
Tides and Currents Weather Stations Pressure Air Temp Water Temp Dewpoint Dewpoint Depression Visibility Wind Speed Wind Dir Waves Ship Positions

Mister T

Owner: Buchanan Marine LP, New Haven, CT. More information available from US FCC via Universal Licensing System and Coast Guard Vessel Documentation Center.

Last reported at 2018-Jun-22 17:01 UTC. Time now 2018-Jun-22 17:09 UTC.
Position N 40°40' W 074°01'.

Length 25 m; draft 3.6 m.

Type: Towing. MMSI: 366993880.

Date/timePositionNaut miles runAvg speedWind from/ knotsBaromVisibWave heightAir tempDewpointWater temp
2018-Jun-22 17:01N 40°40' W 074°01'0 0.0
2018-Jun-22 16:30N 40°40' W 074°01'0 0.0
2018-Jun-22 16:01N 40°40' W 074°01'0 0.0
2018-Jun-22 15:30N 40°40' W 074°01'0 0.0
2018-Jun-22 15:00N 40°40' W 074°01'0 0.0
2018-Jun-22 14:30N 40°40' W 074°01'0 0.0
2018-Jun-22 14:00N 40°40' W 074°01'0 0.0
2018-Jun-22 13:30N 40°40' W 074°01'0 0.0
2018-Jun-22 13:00N 40°40' W 074°01'0 0.0
2018-Jun-22 12:30N 40°40' W 074°01'0 0.0
2018-Jun-22 12:00N 40°40' W 074°01'0 0.0
2018-Jun-22 11:30N 40°40' W 074°01'0 0.0
2018-Jun-22 11:00N 40°40' W 074°01'0 0.0
2018-Jun-22 10:30N 40°40' W 074°01'0 0.0
2018-Jun-22 10:00N 40°40' W 074°01'0 0.0
2018-Jun-22 09:30N 40°40' W 074°01'0 0.0
2018-Jun-22 09:00N 40°40' W 074°01'0 0.0
2018-Jun-22 08:30N 40°40' W 074°01'0 0.0
2018-Jun-22 08:00N 40°40' W 074°01'0 0.0
2018-Jun-22 07:30N 40°40' W 074°01'0 0.0
2018-Jun-22 07:00N 40°40' W 074°01'0 0.0
2018-Jun-22 06:30N 40°40' W 074°01'0 0.0
2018-Jun-22 06:00N 40°40' W 074°01'0 0.0
2018-Jun-22 05:30N 40°40' W 074°01'0 0.0
2018-Jun-22 05:00N 40°40' W 074°01'0 0.0
2018-Jun-22 04:30N 40°40' W 074°01'0 0.0
2018-Jun-22 04:00N 40°40' W 074°01'0 0.0
2018-Jun-22 03:30N 40°40' W 074°01'0 0.0
2018-Jun-22 03:00N 40°40' W 074°01'0 0.0
2018-Jun-22 02:30N 40°40' W 074°01'0 0.0
2018-Jun-22 02:00N 40°40' W 074°01'0 0.0
2018-Jun-22 01:30N 40°40' W 074°01'0 0.0
2018-Jun-22 01:00N 40°40' W 074°01'0 0.0
2018-Jun-22 00:30N 40°40' W 074°01'0 0.0
2018-Jun-22 00:00N 40°40' W 074°01'0 0.0
2018-Jun-21 23:30N 40°40' W 074°01'0 0.0
2018-Jun-21 23:00N 40°40' W 074°01'0 0.0
2018-Jun-21 22:30N 40°40' W 074°01'0 0.0
2018-Jun-21 22:00N 40°40' W 074°01'0 0.0
2018-Jun-21 21:30N 40°40' W 074°01'0 0.0
2018-Jun-21 21:00N 40°40' W 074°01'0 0.0
2018-Jun-21 20:30N 40°40' W 074°01'0 0.0
2018-Jun-21 20:00N 40°40' W 074°01'0 0.0
2018-Jun-21 19:30N 40°40' W 074°01'0 0.0
2018-Jun-21 19:00N 40°40' W 074°01'0 0.0
2018-Jun-21 18:30N 40°40' W 074°01'0 0.0
2018-Jun-21 18:00N 40°40' W 074°01'1 1.1
2018-Jun-21 17:31N 40°40' W 074°01'2 3.1
2018-Jun-21 16:59N 40°40' W 074°03'0 0.3
2018-Jun-21 16:30N 40°40' W 074°03'1 1.2
2018-Jun-21 16:01N 40°40' W 074°04'3 6.9
2018-Jun-21 15:31N 40°39' W 074°08'3 1.2
2018-Jun-21 13:20N 40°38' W 074°12'0 0.0
2018-Jun-21 12:56N 40°38' W 074°12'0 0.0
2018-Jun-21 12:21N 40°38' W 074°12'2 6.5
2018-Jun-21 12:00N 40°39' W 074°09'4 7.8
2018-Jun-21 11:31N 40°40' W 074°04'2 4.5
2018-Jun-21 11:00N 40°40' W 074°01'0 0.0
2018-Jun-21 10:30N 40°40' W 074°01'0 0.0
2018-Jun-21 10:00N 40°40' W 074°01'0 0.0
2018-Jun-21 09:30N 40°40' W 074°01'0 0.0
2018-Jun-21 08:48N 40°40' W 074°01'0 0.0
2018-Jun-21 08:30N 40°40' W 074°01'0 0.0
2018-Jun-21 07:59N 40°40' W 074°01'0 0.0
2018-Jun-21 07:30N 40°40' W 074°01'0 0.0
2018-Jun-21 07:00N 40°40' W 074°01'0 0.0
2018-Jun-21 06:29N 40°40' W 074°01'0 0.0
2018-Jun-21 06:00N 40°40' W 074°01'0 0.0
2018-Jun-21 05:30N 40°40' W 074°01'0 0.0
2018-Jun-21 04:59N 40°40' W 074°01'0 0.0
2018-Jun-21 04:30N 40°40' W 074°01'0 0.0
2018-Jun-21 04:00N 40°40' W 074°01'0 0.0
2018-Jun-21 03:29N 40°40' W 074°01'0 0.0
2018-Jun-21 03:00N 40°40' W 074°01'0 0.0
2018-Jun-21 02:30N 40°40' W 074°01'0 0.0
2018-Jun-21 02:00N 40°40' W 074°01'0 0.0
2018-Jun-21 01:30N 40°40' W 074°01'0 0.0
2018-Jun-21 00:59N 40°40' W 074°01'0 0.0
2018-Jun-21 00:30N 40°40' W 074°01'0 0.0
2018-Jun-20 23:59N 40°40' W 074°01'0 0.0
2018-Jun-20 23:29N 40°40' W 074°01'0 0.0
2018-Jun-20 22:59N 40°40' W 074°01'0 0.0
2018-Jun-20 22:30N 40°40' W 074°01'2 3.4
2018-Jun-20 22:00N 40°40' W 074°03'0 0.7
2018-Jun-20 21:31N 40°40' W 074°03'2 3.7
2018-Jun-20 21:00N 40°41' W 074°01'2 4.3
2018-Jun-20 20:30N 40°40' W 074°03'0 0.0
2018-Jun-20 20:01N 40°40' W 074°03'2 4.7
2018-Jun-20 19:31N 40°40' W 074°00'1 1.5
2018-Jun-20 19:00N 40°40' W 074°01'2 3.6
2018-Jun-20 18:30N 40°40' W 074°03'1 3.0
2018-Jun-20 18:00N 40°41' W 074°02'1 2.2
2018-Jun-20 17:30N 40°40' W 074°00'2 4.8
2018-Jun-20 17:00N 40°40' W 074°03'2 4.9
2018-Jun-20 16:30N 40°41' W 074°01'1 2.5
2018-Jun-20 16:00N 40°40' W 074°02'1 2.5
2018-Jun-20 15:30N 40°40' W 074°03'0 0.1
2018-Jun-20 15:00N 40°40' W 074°03'0 0.1
2018-Jun-20 14:30N 40°40' W 074°03'0 0.1
2018-Jun-20 13:59N 40°40' W 074°03'1 3.0
2018-Jun-20 13:31N 40°41' W 074°02'3 5.8
2018-Jun-20 13:00N 40°43' W 073°59'3 6.6
2018-Jun-20 12:30N 40°46' W 073°57'  
2018-Jun-17 12:16N 40°45' W 073°58'1 4.8
2018-Jun-17 12:01N 40°44' W 073°58'2 4.1
2018-Jun-17 11:29N 40°42' W 074°00'2 3.7
2018-Jun-17 11:01N 40°41' W 074°01'2 3.0
2018-Jun-17 10:31N 40°40' W 074°03'2 3.5
2018-Jun-17 10:00N 40°40' W 074°01'0 0.1
2018-Jun-17 09:28N 40°40' W 074°01'0 0.0
2018-Jun-17 08:58N 40°40' W 074°01'0 0.0
2018-Jun-17 08:28N 40°40' W 074°01'0 0.0
2018-Jun-17 07:58N 40°40' W 074°01'0 0.0
2018-Jun-17 07:28N 40°40' W 074°01'0 0.0
2018-Jun-17 06:58N 40°40' W 074°01'0 0.0
2018-Jun-17 06:28N 40°40' W 074°01'0 0.0
2018-Jun-17 05:58N 40°40' W 074°01'0 0.0
2018-Jun-17 05:28N 40°40' W 074°01'0 0.0
2018-Jun-17 04:58N 40°40' W 074°01'0 0.0
2018-Jun-17 04:28N 40°40' W 074°01'0 0.0
2018-Jun-17 03:58N 40°40' W 074°01'0 0.0
2018-Jun-17 03:28N 40°40' W 074°01'0 0.0
2018-Jun-17 02:58N 40°40' W 074°01'0 0.0
2018-Jun-17 02:28N 40°40' W 074°01'0 0.0
2018-Jun-17 01:58N 40°40' W 074°01'0 0.0
2018-Jun-17 01:28N 40°40' W 074°01'0 0.0
2018-Jun-17 00:58N 40°40' W 074°01'0 0.0
2018-Jun-17 00:28N 40°40' W 074°01'0 0.0
2018-Jun-16 23:58N 40°40' W 074°01'0 0.0
2018-Jun-16 23:28N 40°40' W 074°01'0 0.0
2018-Jun-16 22:58N 40°40' W 074°01'0 0.0
2018-Jun-16 22:25N 40°40' W 074°01'0 0.0
2018-Jun-16 21:58N 40°40' W 074°01'0 0.1
2018-Jun-16 21:28N 40°40' W 074°01'0 0.1
2018-Jun-16 20:58N 40°40' W 074°01'2 3.9
2018-Jun-16 20:30N 40°40' W 074°03'3 5.0
2018-Jun-16 20:00N 40°41' W 074°01'4 8.1
2018-Jun-16 19:30N 40°45' W 073°58'3 0.4
2018-Jun-16 12:39N 40°47' W 073°55'2 5.9
2018-Jun-16 12:21N 40°46' W 073°57'2 6.0
2018-Jun-16 12:00N 40°44' W 073°58'3 5.3
2018-Jun-16 11:31N 40°42' W 074°00'2 4.1
2018-Jun-16 11:01N 40°40' W 074°02'1 1.9
2018-Jun-16 10:28N 40°40' W 074°03'2 3.9
2018-Jun-16 09:59N 40°40' W 074°01'0 0.0
2018-Jun-16 09:29N 40°40' W 074°01'0 0.0
2018-Jun-16 08:59N 40°40' W 074°01'0 0.0
2018-Jun-16 08:29N 40°40' W 074°01'0 0.0
2018-Jun-16 07:59N 40°40' W 074°01'0 0.0
2018-Jun-16 07:26N 40°40' W 074°01'0 0.0
2018-Jun-16 06:59N 40°40' W 074°01'0 0.0
2018-Jun-16 06:29N 40°40' W 074°01'0 0.0
2018-Jun-16 05:59N 40°40' W 074°01'0 0.0
2018-Jun-16 05:29N 40°40' W 074°01'0 0.0
2018-Jun-16 04:59N 40°40' W 074°01'0 0.0
2018-Jun-16 04:29N 40°40' W 074°01'0 0.0
2018-Jun-16 03:59N 40°40' W 074°01'0 0.0
2018-Jun-16 03:29N 40°40' W 074°01'0 0.0
2018-Jun-16 02:59N 40°40' W 074°01'0 0.0
2018-Jun-16 02:29N 40°40' W 074°01'0 0.0
2018-Jun-16 01:59N 40°40' W 074°01'0 0.0
2018-Jun-16 01:29N 40°40' W 074°01'0 0.0
2018-Jun-16 00:59N 40°40' W 074°01'0 0.0
2018-Jun-16 00:29N 40°40' W 074°01'0 0.0
2018-Jun-15 23:59N 40°40' W 074°01'0 0.0
2018-Jun-15 23:29N 40°40' W 074°01'0 0.0
2018-Jun-15 22:59N 40°40' W 074°01'0 0.0
2018-Jun-15 22:29N 40°40' W 074°01'0 0.0
2018-Jun-15 21:59N 40°40' W 074°01'0 0.0
2018-Jun-15 21:29N 40°40' W 074°01'1 2.1
2018-Jun-15 21:00N 40°40' W 074°02'1 1.6
2018-Jun-15 20:30N 40°41' W 074°02'0 0.6
2018-Jun-15 20:00N 40°40' W 074°02'1 2.9
2018-Jun-15 19:30N 40°40' W 074°03'4 7.4
2018-Jun-15 19:00N 40°42' W 073°60'  

Dump ship's entire track history